sensor_id;sensor_type;location;lat;lon;timestamp;pressure;altitude;pressure_sealevel;temperature;humidity
75136;BME280;63707;52.212;9.540;2022-10-24T00:01:12;99320.00;;;11.94;95.64
75136;BME280;63707;52.212;9.540;2022-10-24T00:03:38;99324.66;;;12.05;95.58
75136;BME280;63707;52.212;9.540;2022-10-24T00:06:04;99310.38;;;11.91;95.51
75136;BME280;63707;52.212;9.540;2022-10-24T00:08:30;99313.81;;;11.68;96.05
75136;BME280;63707;52.212;9.540;2022-10-24T00:10:56;99312.72;;;11.58;96.86
75136;BME280;63707;52.212;9.540;2022-10-24T00:13:23;99319.59;;;11.60;96.29
75136;BME280;63707;52.212;9.540;2022-10-24T00:15:49;99329.47;;;11.61;96.19
75136;BME280;63707;52.212;9.540;2022-10-24T00:18:14;99323.63;;;11.58;96.80
75136;BME280;63707;52.212;9.540;2022-10-24T00:20:40;99326.09;;;11.48;96.66
75136;BME280;63707;52.212;9.540;2022-10-24T00:23:06;99314.19;;;11.42;96.98
75136;BME280;63707;52.212;9.540;2022-10-24T00:25:31;99326.91;;;11.30;97.08
75136;BME280;63707;52.212;9.540;2022-10-24T00:27:57;99319.66;;;11.24;97.50
75136;BME280;63707;52.212;9.540;2022-10-24T00:30:24;99329.13;;;11.21;97.26
75136;BME280;63707;52.212;9.540;2022-10-24T00:32:49;99335.72;;;11.14;97.02
75136;BME280;63707;52.212;9.540;2022-10-24T00:35:15;99336.84;;;11.24;97.56
75136;BME280;63707;52.212;9.540;2022-10-24T00:37:41;99337.91;;;11.23;97.90
75136;BME280;63707;52.212;9.540;2022-10-24T00:40:07;99323.44;;;11.23;97.53
75136;BME280;63707;52.212;9.540;2022-10-24T00:42:34;99327.69;;;11.37;97.73
75136;BME280;63707;52.212;9.540;2022-10-24T00:45:00;99331.16;;;11.26;97.99
75136;BME280;63707;52.212;9.540;2022-10-24T00:47:27;99329.59;;;11.18;97.75
75136;BME280;63707;52.212;9.540;2022-10-24T00:49:55;99321.63;;;11.17;97.94
75136;BME280;63707;52.212;9.540;2022-10-24T00:52:27;99320.44;;;11.61;97.55
75136;BME280;63707;52.212;9.540;2022-10-24T00:54:54;99317.34;;;11.57;97.69
75136;BME280;63707;52.212;9.540;2022-10-24T00:57:24;99322.50;;;11.77;97.13
75136;BME280;63707;52.212;9.540;2022-10-24T00:59:55;99321.19;;;11.68;96.94
75136;BME280;63707;52.212;9.540;2022-10-24T01:02:22;99327.31;;;11.63;97.20
75136;BME280;63707;52.212;9.540;2022-10-24T01:04:49;99326.50;;;11.63;96.92
75136;BME280;63707;52.212;9.540;2022-10-24T01:07:23;99324.75;;;11.68;96.82
75136;BME280;63707;52.212;9.540;2022-10-24T01:10:07;99326.88;;;11.66;96.61
75136;BME280;63707;52.212;9.540;2022-10-24T01:12:43;99324.38;;;11.83;96.72
75136;BME280;63707;52.212;9.540;2022-10-24T01:15:16;99332.00;;;11.93;96.22
75136;BME280;63707;52.212;9.540;2022-10-24T01:17:50;99317.78;;;12.03;95.72
75136;BME280;63707;52.212;9.540;2022-10-24T01:23:42;99298.91;;;12.13;96.01
75136;BME280;63707;52.212;9.540;2022-10-24T01:26:28;99287.03;;;12.07;95.15
75136;BME280;63707;52.212;9.540;2022-10-24T01:29:00;99290.38;;;11.79;96.07
75136;BME280;63707;52.212;9.540;2022-10-24T01:31:34;99293.63;;;11.58;96.23
75136;BME280;63707;52.212;9.540;2022-10-24T01:34:09;99290.16;;;11.51;96.78
75136;BME280;63707;52.212;9.540;2022-10-24T01:36:40;99295.94;;;11.43;96.81
75136;BME280;63707;52.212;9.540;2022-10-24T01:39:11;99281.72;;;11.22;97.31
75136;BME280;63707;52.212;9.540;2022-10-24T01:41:39;99277.78;;;11.18;97.19
75136;BME280;63707;52.212;9.540;2022-10-24T01:44:09;99276.16;;;11.29;97.81
75136;BME280;63707;52.212;9.540;2022-10-24T01:46:41;99275.25;;;11.35;97.55
75136;BME280;63707;52.212;9.540;2022-10-24T01:49:12;99289.19;;;11.27;97.59
75136;BME280;63707;52.212;9.540;2022-10-24T01:51:38;99283.59;;;11.22;98.56
75136;BME280;63707;52.212;9.540;2022-10-24T01:54:06;99273.38;;;11.17;98.44
75136;BME280;63707;52.212;9.540;2022-10-24T01:56:32;99268.16;;;11.16;98.54
75136;BME280;63707;52.212;9.540;2022-10-24T01:59:05;99270.09;;;11.27;98.51
75136;BME280;63707;52.212;9.540;2022-10-24T02:01:31;99259.25;;;11.09;98.49
75136;BME280;63707;52.212;9.540;2022-10-24T02:04:01;99265.38;;;11.04;98.24
75136;BME280;63707;52.212;9.540;2022-10-24T02:06:31;99264.19;;;11.00;98.61
75136;BME280;63707;52.212;9.540;2022-10-24T02:09:02;99257.66;;;11.01;98.65
75136;BME280;63707;52.212;9.540;2022-10-24T02:11:30;99257.41;;;10.84;98.88
75136;BME280;63707;52.212;9.540;2022-10-24T02:13:58;99241.53;;;10.81;98.78
75136;BME280;63707;52.212;9.540;2022-10-24T02:16:26;99226.69;;;10.77;98.56
75136;BME280;63707;52.212;9.540;2022-10-24T02:18:53;99221.72;;;10.74;98.98
75136;BME280;63707;52.212;9.540;2022-10-24T02:21:27;99227.16;;;10.92;98.92
75136;BME280;63707;52.212;9.540;2022-10-24T02:23:58;99236.06;;;10.81;99.12
75136;BME280;63707;52.212;9.540;2022-10-24T02:26:30;99235.84;;;10.83;99.54
75136;BME280;63707;52.212;9.540;2022-10-24T02:28:59;99230.72;;;10.75;99.07
75136;BME280;63707;52.212;9.540;2022-10-24T02:31:30;99224.81;;;10.78;99.81
75136;BME280;63707;52.212;9.540;2022-10-24T02:33:57;99235.19;;;10.69;99.54
75136;BME280;63707;52.212;9.540;2022-10-24T02:36:27;99233.97;;;11.01;99.34
75136;BME280;63707;52.212;9.540;2022-10-24T02:38:54;99228.75;;;11.00;99.21
75136;BME280;63707;52.212;9.540;2022-10-24T02:41:24;99222.59;;;10.86;99.73
75136;BME280;63707;52.212;9.540;2022-10-24T02:43:51;99226.25;;;10.80;99.61
75136;BME280;63707;52.212;9.540;2022-10-24T02:46:18;99213.38;;;10.69;99.77
75136;BME280;63707;52.212;9.540;2022-10-24T02:48:48;99204.13;;;11.37;100.00
75136;BME280;63707;52.212;9.540;2022-10-24T02:51:17;99195.53;;;10.91;99.43
75136;BME280;63707;52.212;9.540;2022-10-24T02:53:46;99205.41;;;10.86;99.31
75136;BME280;63707;52.212;9.540;2022-10-24T02:56:11;99205.72;;;10.96;100.00
75136;BME280;63707;52.212;9.540;2022-10-24T02:58:37;99196.44;;;11.15;99.50
75136;BME280;63707;52.212;9.540;2022-10-24T03:01:03;99190.69;;;11.35;99.52
75136;BME280;63707;52.212;9.540;2022-10-24T03:03:28;99184.59;;;11.63;100.00
75136;BME280;63707;52.212;9.540;2022-10-24T03:05:54;99185.66;;;12.04;99.89
75136;BME280;63707;52.212;9.540;2022-10-24T03:08:19;99183.75;;;12.16;97.85
75136;BME280;63707;52.212;9.540;2022-10-24T03:10:46;99187.31;;;11.93;97.07
75136;BME280;63707;52.212;9.540;2022-10-24T03:13:12;99175.19;;;12.24;95.51
75136;BME280;63707;52.212;9.540;2022-10-24T03:15:37;99168.31;;;11.86;95.81
75136;BME280;63707;52.212;9.540;2022-10-24T03:18:03;99170.94;;;12.05;96.13
75136;BME280;63707;52.212;9.540;2022-10-24T03:20:28;99178.53;;;11.91;96.43
75136;BME280;63707;52.212;9.540;2022-10-24T03:22:54;99171.50;;;12.42;94.41
75136;BME280;63707;52.212;9.540;2022-10-24T03:25:19;99176.47;;;12.45;93.63
75136;BME280;63707;52.212;9.540;2022-10-24T03:27:46;99173.97;;;12.55;93.20
75136;BME280;63707;52.212;9.540;2022-10-24T03:30:12;99166.69;;;12.60;92.67
75136;BME280;63707;52.212;9.540;2022-10-24T03:32:38;99170.13;;;12.68;93.01
75136;BME280;63707;52.212;9.540;2022-10-24T03:35:03;99181.31;;;12.78;91.96
75136;BME280;63707;52.212;9.540;2022-10-24T03:37:29;99184.53;;;13.03;91.13
75136;BME280;63707;52.212;9.540;2022-10-24T03:39:55;99173.44;;;13.10;90.95
75136;BME280;63707;52.212;9.540;2022-10-24T03:42:21;99177.78;;;12.94;91.88
75136;BME280;63707;52.212;9.540;2022-10-24T03:44:47;99175.81;;;13.18;90.68
75136;BME280;63707;52.212;9.540;2022-10-24T03:47:13;99177.34;;;13.14;90.81
75136;BME280;63707;52.212;9.540;2022-10-24T03:49:38;99179.25;;;13.13;91.01
75136;BME280;63707;52.212;9.540;2022-10-24T03:52:04;99175.69;;;13.25;90.44
75136;BME280;63707;52.212;9.540;2022-10-24T03:54:30;99175.69;;;13.25;90.59
75136;BME280;63707;52.212;9.540;2022-10-24T03:56:55;99166.41;;;13.26;90.57
75136;BME280;63707;52.212;9.540;2022-10-24T03:59:21;99169.03;;;13.20;90.62
75136;BME280;63707;52.212;9.540;2022-10-24T04:01:48;99178.28;;;13.31;90.16
75136;BME280;63707;52.212;9.540;2022-10-24T04:04:13;99166.59;;;13.36;90.00
75136;BME280;63707;52.212;9.540;2022-10-24T04:06:39;99165.09;;;13.28;90.49
75136;BME280;63707;52.212;9.540;2022-10-24T04:09:05;99165.28;;;13.38;90.21
75136;BME280;63707;52.212;9.540;2022-10-24T04:11:31;99173.28;;;13.16;90.98
75136;BME280;63707;52.212;9.540;2022-10-24T04:13:57;99168.66;;;13.29;90.32
75136;BME280;63707;52.212;9.540;2022-10-24T04:16:23;99167.50;;;13.41;89.51
75136;BME280;63707;52.212;9.540;2022-10-24T04:18:50;99163.44;;;13.44;89.48
75136;BME280;63707;52.212;9.540;2022-10-24T04:21:16;99162.34;;;13.16;90.34
75136;BME280;63707;52.212;9.540;2022-10-24T04:23:41;99163.94;;;13.41;89.20
75136;BME280;63707;52.212;9.540;2022-10-24T04:26:09;99166.59;;;13.36;89.40
75136;BME280;63707;52.212;9.540;2022-10-24T04:28:34;99161.78;;;13.43;89.14
75136;BME280;63707;52.212;9.540;2022-10-24T04:31:00;99146.13;;;13.55;88.49
75136;BME280;63707;52.212;9.540;2022-10-24T04:33:26;99148.25;;;13.36;89.24
75136;BME280;63707;52.212;9.540;2022-10-24T04:35:52;99153.50;;;13.38;89.07
75136;BME280;63707;52.212;9.540;2022-10-24T04:38:18;99161.13;;;13.52;88.48
75136;BME280;63707;52.212;9.540;2022-10-24T04:40:45;99152.91;;;13.52;88.33
75136;BME280;63707;52.212;9.540;2022-10-24T04:43:10;99146.94;;;13.55;88.36
75136;BME280;63707;52.212;9.540;2022-10-24T04:45:36;99151.00;;;13.53;88.42
75136;BME280;63707;52.212;9.540;2022-10-24T04:48:01;99160.56;;;13.50;88.54
75136;BME280;63707;52.212;9.540;2022-10-24T04:50:27;99166.59;;;13.52;88.44
75136;BME280;63707;52.212;9.540;2022-10-24T04:52:53;99155.72;;;13.41;88.71
75136;BME280;63707;52.212;9.540;2022-10-24T04:55:19;99162.03;;;13.58;88.35
75136;BME280;63707;52.212;9.540;2022-10-24T04:57:44;99158.41;;;13.52;88.25
75136;BME280;63707;52.212;9.540;2022-10-24T05:00:11;99156.66;;;13.63;88.08
75136;BME280;63707;52.212;9.540;2022-10-24T05:02:36;99150.75;;;13.54;88.43
75136;BME280;63707;52.212;9.540;2022-10-24T05:05:02;99139.31;;;13.58;88.48
75136;BME280;63707;52.212;9.540;2022-10-24T05:07:28;99147.28;;;13.59;88.28
75136;BME280;63707;52.212;9.540;2022-10-24T05:09:55;99145.53;;;13.70;88.00
75136;BME280;63707;52.212;9.540;2022-10-24T05:12:20;99141.97;;;13.52;88.78
75136;BME280;63707;52.212;9.540;2022-10-24T05:14:46;99141.63;;;13.66;88.50
75136;BME280;63707;52.212;9.540;2022-10-24T05:17:12;99133.50;;;13.54;88.90
75136;BME280;63707;52.212;9.540;2022-10-24T05:19:38;99138.06;;;13.65;88.34
75136;BME280;63707;52.212;9.540;2022-10-24T05:22:04;99133.94;;;13.79;87.91
75136;BME280;63707;52.212;9.540;2022-10-24T05:24:29;99135.53;;;13.75;87.91
75136;BME280;63707;52.212;9.540;2022-10-24T05:26:56;99122.09;;;13.74;87.95
75136;BME280;63707;52.212;9.540;2022-10-24T05:29:22;99132.53;;;13.77;87.92
75136;BME280;63707;52.212;9.540;2022-10-24T05:31:47;99132.84;;;13.64;88.57
75136;BME280;63707;52.212;9.540;2022-10-24T05:34:13;99131.09;;;13.58;88.81
75136;BME280;63707;52.212;9.540;2022-10-24T05:36:39;99125.97;;;13.61;88.72
75136;BME280;63707;52.212;9.540;2022-10-24T05:39:04;99134.28;;;13.83;87.48
75136;BME280;63707;52.212;9.540;2022-10-24T05:41:30;99132.28;;;13.78;88.00
75136;BME280;63707;52.212;9.540;2022-10-24T05:43:58;99131.84;;;13.70;87.98
75136;BME280;63707;52.212;9.540;2022-10-24T05:46:23;99136.84;;;13.90;87.29
75136;BME280;63707;52.212;9.540;2022-10-24T05:48:49;99140.50;;;13.78;87.89
75136;BME280;63707;52.212;9.540;2022-10-24T05:51:14;99129.88;;;13.82;87.47
75136;BME280;63707;52.212;9.540;2022-10-24T05:53:40;99132.69;;;13.87;87.71
75136;BME280;63707;52.212;9.540;2022-10-24T05:56:06;99133.66;;;14.53;86.39
75136;BME280;63707;52.212;9.540;2022-10-24T05:58:31;99124.91;;;15.86;78.68
75136;BME280;63707;52.212;9.540;2022-10-24T06:00:59;99136.91;;;14.50;84.03
75136;BME280;63707;52.212;9.540;2022-10-24T06:03:25;99138.41;;;13.85;86.79
75136;BME280;63707;52.212;9.540;2022-10-24T06:05:51;99142.09;;;13.74;87.50
75136;BME280;63707;52.212;9.540;2022-10-24T06:08:17;99134.34;;;13.71;87.43
75136;BME280;63707;52.212;9.540;2022-10-24T06:10:45;99129.38;;;13.85;86.72
75136;BME280;63707;52.212;9.540;2022-10-24T06:13:10;99135.28;;;13.77;86.86
75136;BME280;63707;52.212;9.540;2022-10-24T06:15:36;99135.91;;;13.67;87.23
75136;BME280;63707;52.212;9.540;2022-10-24T06:18:03;99142.72;;;13.65;87.49
75136;BME280;63707;52.212;9.540;2022-10-24T06:20:29;99141.50;;;13.72;86.79
75136;BME280;63707;52.212;9.540;2022-10-24T06:22:54;99136.84;;;13.73;86.79
75136;BME280;63707;52.212;9.540;2022-10-24T06:25:19;99130.53;;;13.89;85.97
75136;BME280;63707;52.212;9.540;2022-10-24T06:27:46;99141.81;;;13.93;85.42
75136;BME280;63707;52.212;9.540;2022-10-24T06:30:12;99139.72;;;14.00;84.91
75136;BME280;63707;52.212;9.540;2022-10-24T06:32:38;99141.06;;;13.97;84.83
75136;BME280;63707;52.212;9.540;2022-10-24T06:35:06;99137.16;;;13.93;85.32
75136;BME280;63707;52.212;9.540;2022-10-24T06:37:32;99142.88;;;13.92;85.27
75136;BME280;63707;52.212;9.540;2022-10-24T06:39:57;99148.44;;;13.97;84.93
75136;BME280;63707;52.212;9.540;2022-10-24T06:42:23;99148.78;;;14.00;84.83
75136;BME280;63707;52.212;9.540;2022-10-24T06:44:49;99150.69;;;14.00;84.91
75136;BME280;63707;52.212;9.540;2022-10-24T06:47:15;99156.56;;;14.08;84.53
75136;BME280;63707;52.212;9.540;2022-10-24T06:49:41;99151.72;;;14.15;84.00
75136;BME280;63707;52.212;9.540;2022-10-24T06:52:08;99156.47;;;14.20;83.88
75136;BME280;63707;52.212;9.540;2022-10-24T06:54:33;99160.44;;;14.29;82.87
75136;BME280;63707;52.212;9.540;2022-10-24T06:57:00;99156.13;;;14.33;83.06
75136;BME280;63707;52.212;9.540;2022-10-24T06:59:26;99158.66;;;14.40;82.68
75136;BME280;63707;52.212;9.540;2022-10-24T07:01:51;99166.47;;;14.48;82.24
75136;BME280;63707;52.212;9.540;2022-10-24T07:04:17;99164.91;;;14.52;81.98
75136;BME280;63707;52.212;9.540;2022-10-24T07:06:43;99161.44;;;14.62;81.95
75136;BME280;63707;52.212;9.540;2022-10-24T07:09:11;99156.28;;;14.65;81.81
75136;BME280;63707;52.212;9.540;2022-10-24T07:11:36;99170.91;;;14.71;81.20
75136;BME280;63707;52.212;9.540;2022-10-24T07:14:02;99172.69;;;14.82;80.61
75136;BME280;63707;52.212;9.540;2022-10-24T07:16:28;99178.03;;;14.94;80.17
75136;BME280;63707;52.212;9.540;2022-10-24T07:18:53;99174.84;;;15.24;79.28
75136;BME280;63707;52.212;9.540;2022-10-24T07:21:21;99161.16;;;15.29;79.35
75136;BME280;63707;52.212;9.540;2022-10-24T07:23:46;99172.81;;;15.41;78.39
75136;BME280;63707;52.212;9.540;2022-10-24T07:26:14;99176.69;;;15.45;77.88
75136;BME280;63707;52.212;9.540;2022-10-24T07:28:41;99187.34;;;15.41;78.27
75136;BME280;63707;52.212;9.540;2022-10-24T07:31:09;99171.03;;;15.57;77.54
75136;BME280;63707;52.212;9.540;2022-10-24T07:33:36;99164.75;;;15.88;76.19
75136;BME280;63707;52.212;9.540;2022-10-24T07:36:02;99160.56;;;16.60;73.39
75136;BME280;63707;52.212;9.540;2022-10-24T07:38:28;99158.94;;;18.48;67.29
75136;BME280;63707;52.212;9.540;2022-10-24T07:40:53;99192.81;;;17.42;69.75
75136;BME280;63707;52.212;9.540;2022-10-24T07:43:20;99196.50;;;18.14;67.54
75136;BME280;63707;52.212;9.540;2022-10-24T07:45:46;99184.22;;;17.18;70.95
75136;BME280;63707;52.212;9.540;2022-10-24T07:48:11;99187.53;;;17.20;71.34
75136;BME280;63707;52.212;9.540;2022-10-24T07:50:41;99179.00;;;17.27;70.75
75136;BME280;63707;52.212;9.540;2022-10-24T07:53:07;99188.41;;;17.41;70.31
75136;BME280;63707;52.212;9.540;2022-10-24T07:55:33;99182.69;;;18.34;67.22
75136;BME280;63707;52.212;9.540;2022-10-24T07:58:01;99186.19;;;18.75;65.92
75136;BME280;63707;52.212;9.540;2022-10-24T08:00:28;99178.47;;;19.81;62.86
75136;BME280;63707;52.212;9.540;2022-10-24T08:02:54;99170.19;;;19.32;64.03
75136;BME280;63707;52.212;9.540;2022-10-24T08:05:19;99159.66;;;18.95;64.70
75136;BME280;63707;52.212;9.540;2022-10-24T08:07:45;99171.97;;;17.87;68.16
75136;BME280;63707;52.212;9.540;2022-10-24T08:10:11;99165.25;;;17.42;69.50
75136;BME280;63707;52.212;9.540;2022-10-24T08:12:36;99158.09;;;17.46;69.11
75136;BME280;63707;52.212;9.540;2022-10-24T08:15:02;99163.00;;;17.04;70.41
75136;BME280;63707;52.212;9.540;2022-10-24T08:17:29;99158.97;;;17.57;68.43
75136;BME280;63707;52.212;9.540;2022-10-24T08:19:55;99157.53;;;17.24;69.30
75136;BME280;63707;52.212;9.540;2022-10-24T08:22:20;99148.50;;;18.20;67.46
75136;BME280;63707;52.212;9.540;2022-10-24T08:24:46;99149.38;;;17.75;68.03
75136;BME280;63707;52.212;9.540;2022-10-24T08:27:11;99160.94;;;17.77;67.73
75136;BME280;63707;52.212;9.540;2022-10-24T08:29:37;99158.16;;;17.56;68.03
75136;BME280;63707;52.212;9.540;2022-10-24T08:32:03;99152.53;;;18.73;65.32
75136;BME280;63707;52.212;9.540;2022-10-24T08:34:32;99157.69;;;19.00;62.98
75136;BME280;63707;52.212;9.540;2022-10-24T08:36:58;99152.22;;;19.34;62.01
75136;BME280;63707;52.212;9.540;2022-10-24T08:39:23;99149.41;;;20.18;59.33
75136;BME280;63707;52.212;9.540;2022-10-24T08:41:51;99144.47;;;20.91;57.64
75136;BME280;63707;52.212;9.540;2022-10-24T08:44:25;99149.41;;;20.18;59.41
75136;BME280;63707;52.212;9.540;2022-10-24T08:46:54;99156.56;;;19.50;61.88
75136;BME280;63707;52.212;9.540;2022-10-24T08:49:29;99157.88;;;18.19;65.32
75136;BME280;63707;52.212;9.540;2022-10-24T08:52:00;99158.41;;;18.36;65.93
75136;BME280;63707;52.212;9.540;2022-10-24T08:54:33;99152.94;;;17.96;67.38
75136;BME280;63707;52.212;9.540;2022-10-24T08:57:02;99157.34;;;18.12;66.46
75136;BME280;63707;52.212;9.540;2022-10-24T08:59:29;99153.78;;;17.71;66.93
75136;BME280;63707;52.212;9.540;2022-10-24T09:01:58;99156.22;;;17.62;67.55
75136;BME280;63707;52.212;9.540;2022-10-24T09:04:28;99157.34;;;17.71;67.85
75136;BME280;63707;52.212;9.540;2022-10-24T09:07:00;99144.13;;;18.04;65.73
75136;BME280;63707;52.212;9.540;2022-10-24T09:09:28;99147.97;;;17.57;67.18
75136;BME280;63707;52.212;9.540;2022-10-24T09:11:58;99160.00;;;17.25;68.62
75136;BME280;63707;52.212;9.540;2022-10-24T09:14:27;99155.13;;;17.63;67.30
75136;BME280;63707;52.212;9.540;2022-10-24T09:16:56;99158.66;;;17.43;68.10
75136;BME280;63707;52.212;9.540;2022-10-24T09:19:24;99156.44;;;17.45;66.63
75136;BME280;63707;52.212;9.540;2022-10-24T09:21:51;99156.19;;;17.42;66.41
75136;BME280;63707;52.212;9.540;2022-10-24T09:24:29;99161.44;;;17.53;65.86
75136;BME280;63707;52.212;9.540;2022-10-24T09:26:57;99166.41;;;17.61;64.98
75136;BME280;63707;52.212;9.540;2022-10-24T09:29:26;99159.56;;;17.69;64.38
75136;BME280;63707;52.212;9.540;2022-10-24T09:31:52;99166.47;;;18.02;63.66
75136;BME280;63707;52.212;9.540;2022-10-24T09:34:18;99164.81;;;18.01;63.22
75136;BME280;63707;52.212;9.540;2022-10-24T09:36:44;99170.69;;;18.90;60.95
75136;BME280;63707;52.212;9.540;2022-10-24T09:39:29;99165.28;;;20.07;56.22
75136;BME280;63707;52.212;9.540;2022-10-24T09:41:56;99162.09;;;21.43;51.32
75136;BME280;63707;52.212;9.540;2022-10-24T09:44:34;99174.19;;;22.04;51.19
75136;BME280;63707;52.212;9.540;2022-10-24T09:47:02;99172.31;;;21.24;52.59
75136;BME280;63707;52.212;9.540;2022-10-24T09:49:32;99174.16;;;21.52;51.95
75136;BME280;63707;52.212;9.540;2022-10-24T09:52:03;99170.75;;;21.93;50.98
75136;BME280;63707;52.212;9.540;2022-10-24T09:54:31;99181.78;;;21.79;51.07
75136;BME280;63707;52.212;9.540;2022-10-24T09:57:03;99175.56;;;21.50;51.91
75136;BME280;63707;52.212;9.540;2022-10-24T09:59:33;99178.94;;;20.22;55.41
75136;BME280;63707;52.212;9.540;2022-10-24T10:02:24;99181.28;;;22.88;48.46
75136;BME280;63707;52.212;9.540;2022-10-24T10:05:19;99175.13;;;22.45;49.23
75136;BME280;63707;52.212;9.540;2022-10-24T10:07:46;99198.00;;;18.96;59.53
75136;BME280;63707;52.212;9.540;2022-10-24T10:10:26;99189.91;;;20.37;55.22
75136;BME280;63707;52.212;9.540;2022-10-24T10:12:58;99187.41;;;20.65;55.73
75136;BME280;63707;52.212;9.540;2022-10-24T10:15:29;99192.72;;;19.05;59.54
75136;BME280;63707;52.212;9.540;2022-10-24T10:17:59;99205.00;;;18.33;61.87
75136;BME280;63707;52.212;9.540;2022-10-24T10:20:29;99198.41;;;18.29;62.26
75136;BME280;63707;52.212;9.540;2022-10-24T10:23:15;99201.16;;;18.23;62.42
75136;BME280;63707;52.212;9.540;2022-10-24T10:25:42;99208.34;;;18.04;63.17
75136;BME280;63707;52.212;9.540;2022-10-24T10:28:18;99200.88;;;17.74;63.84
75136;BME280;63707;52.212;9.540;2022-10-24T10:30:47;99203.94;;;18.18;62.94
75136;BME280;63707;52.212;9.540;2022-10-24T10:33:18;99208.63;;;17.98;63.39
75136;BME280;63707;52.212;9.540;2022-10-24T10:35:51;99209.72;;;17.81;63.93
75136;BME280;63707;52.212;9.540;2022-10-24T10:38:41;99204.41;;;17.54;63.16
75136;BME280;63707;52.212;9.540;2022-10-24T10:41:17;99214.63;;;17.54;62.46
75136;BME280;63707;52.212;9.540;2022-10-24T10:43:53;99217.31;;;17.49;63.21
75136;BME280;63707;52.212;9.540;2022-10-24T10:46:25;99227.22;;;17.40;63.70
75136;BME280;63707;52.212;9.540;2022-10-24T10:49:02;99228.88;;;17.36;63.94
75136;BME280;63707;52.212;9.540;2022-10-24T10:51:40;99225.25;;;17.25;64.14
75136;BME280;63707;52.212;9.540;2022-10-24T10:54:16;99227.19;;;17.29;63.44
75136;BME280;63707;52.212;9.540;2022-10-24T10:56:51;99228.81;;;17.20;62.87
75136;BME280;63707;52.212;9.540;2022-10-24T10:59:33;99226.63;;;17.22;62.20
75136;BME280;63707;52.212;9.540;2022-10-24T11:02:18;99234.06;;;17.22;63.11
75136;BME280;63707;52.212;9.540;2022-10-24T11:04:52;99234.34;;;17.30;62.05
75136;BME280;63707;52.212;9.540;2022-10-24T11:07:27;99235.47;;;17.35;61.99
75136;BME280;63707;52.212;9.540;2022-10-24T11:09:58;99239.22;;;18.01;59.82
75136;BME280;63707;52.212;9.540;2022-10-24T11:12:30;99229.78;;;19.58;53.61
75136;BME280;63707;52.212;9.540;2022-10-24T11:15:01;99230.84;;;18.98;56.60
75136;BME280;63707;52.212;9.540;2022-10-24T11:17:32;99223.50;;;18.32;58.33
75136;BME280;63707;52.212;9.540;2022-10-24T11:20:05;99233.44;;;18.03;57.88
75136;BME280;63707;52.212;9.540;2022-10-24T11:22:37;99225.19;;;18.03;57.55
75136;BME280;63707;52.212;9.540;2022-10-24T11:25:07;99224.31;;;17.92;57.89
75136;BME280;63707;52.212;9.540;2022-10-24T11:27:49;99228.72;;;17.78;57.48
75136;BME280;63707;52.212;9.540;2022-10-24T11:30:19;99231.75;;;17.76;57.83
75136;BME280;63707;52.212;9.540;2022-10-24T11:32:48;99229.78;;;17.61;58.27
75136;BME280;63707;52.212;9.540;2022-10-24T11:35:24;99233.34;;;17.52;57.97
75136;BME280;63707;52.212;9.540;2022-10-24T11:37:56;99232.56;;;17.67;57.07
75136;BME280;63707;52.212;9.540;2022-10-24T11:40:24;99234.22;;;17.73;58.07
75136;BME280;63707;52.212;9.540;2022-10-24T11:42:55;99234.47;;;17.61;58.22
75136;BME280;63707;52.212;9.540;2022-10-24T11:45:27;99241.88;;;17.55;58.30
75136;BME280;63707;52.212;9.540;2022-10-24T17:06:43;99397.25;;;13.88;76.90
75136;BME280;63707;52.212;9.540;2022-10-24T17:09:09;99390.56;;;14.12;74.81
75136;BME280;63707;52.212;9.540;2022-10-24T17:11:34;99390.25;;;14.09;75.12
75136;BME280;63707;52.212;9.540;2022-10-24T17:13:59;99392.06;;;14.03;75.76
75136;BME280;63707;52.212;9.540;2022-10-24T17:16:25;99399.19;;;14.04;75.97
75136;BME280;63707;52.212;9.540;2022-10-24T17:18:52;99402.31;;;13.96;76.33
75136;BME280;63707;52.212;9.540;2022-10-24T17:21:17;99407.94;;;13.90;76.90
75136;BME280;63707;52.212;9.540;2022-10-24T17:23:48;99407.75;;;13.79;77.30
75136;BME280;63707;52.212;9.540;2022-10-24T17:26:14;99406.09;;;13.78;77.29
75136;BME280;63707;52.212;9.540;2022-10-24T17:28:40;99398.72;;;13.79;77.61
75136;BME280;63707;52.212;9.540;2022-10-24T17:31:06;99413.81;;;13.81;76.92
75136;BME280;63707;52.212;9.540;2022-10-24T17:33:32;99413.47;;;13.78;77.47
75136;BME280;63707;52.212;9.540;2022-10-24T17:35:58;99417.25;;;13.89;76.59
75136;BME280;63707;52.212;9.540;2022-10-24T17:38:34;99420.13;;;13.82;77.26
75136;BME280;63707;52.212;9.540;2022-10-24T17:41:09;99414.41;;;13.83;76.59
75136;BME280;63707;52.212;9.540;2022-10-24T17:43:38;99427.13;;;13.90;76.72
75136;BME280;63707;52.212;9.540;2022-10-24T17:46:04;99438.59;;;13.75;77.75
75136;BME280;63707;52.212;9.540;2022-10-24T17:48:29;99436.22;;;13.67;77.94
75136;BME280;63707;52.212;9.540;2022-10-24T17:50:56;99431.38;;;13.45;79.67
75136;BME280;63707;52.212;9.540;2022-10-24T17:53:22;99440.06;;;13.42;79.19
75136;BME280;63707;52.212;9.540;2022-10-24T17:55:48;99445.31;;;13.44;78.83
75136;BME280;63707;52.212;9.540;2022-10-24T17:58:15;99440.94;;;13.31;79.69
75136;BME280;63707;52.212;9.540;2022-10-24T18:00:41;99441.16;;;13.18;79.90
75136;BME280;63707;52.212;9.540;2022-10-24T18:03:07;99434.22;;;13.04;80.86
75136;BME280;63707;52.212;9.540;2022-10-24T18:05:33;99446.97;;;13.21;80.01
75136;BME280;63707;52.212;9.540;2022-10-24T18:08:02;99446.59;;;13.06;80.36
75136;BME280;63707;52.212;9.540;2022-10-24T18:10:27;99445.41;;;13.14;80.17
75136;BME280;63707;52.212;9.540;2022-10-24T18:12:53;99453.97;;;12.94;80.90
75136;BME280;63707;52.212;9.540;2022-10-24T18:15:19;99455.97;;;12.87;81.33
75136;BME280;63707;52.212;9.540;2022-10-24T18:17:45;99457.25;;;12.73;81.80
75136;BME280;63707;52.212;9.540;2022-10-24T18:20:12;99453.97;;;12.82;81.48
75136;BME280;63707;52.212;9.540;2022-10-24T18:22:40;99457.53;;;12.83;82.01
75136;BME280;63707;52.212;9.540;2022-10-24T18:25:07;99446.22;;;13.03;80.63
75136;BME280;63707;52.212;9.540;2022-10-24T18:27:34;99449.09;;;12.96;80.72